createdAt,value
2023-02-20T03:58:50.119Z,44.71
2023-02-20T03:59:49.063Z,44.71
2023-02-20T04:00:50.182Z,44.61
2023-02-20T04:01:49.382Z,44.61
2023-02-20T04:02:49.812Z,44.61
2023-02-20T04:03:49.616Z,44.51
2023-02-20T04:04:49.817Z,44.41
2023-02-20T04:05:51.408Z,44.41
2023-02-20T04:06:54.370Z,44.41
2023-02-20T04:07:50.348Z,44.31
2023-02-20T04:08:51.506Z,44.19
2023-02-20T04:09:50.504Z,44.19
2023-02-20T04:10:51.507Z,44.19
2023-02-20T04:11:51.101Z,44.09
2023-02-20T04:12:50.802Z,44.09
2023-02-20T04:13:51.309Z,44.09
2023-02-20T04:14:51.055Z,44.09
2023-02-20T04:15:52.021Z,43.99
2023-02-20T04:16:52.298Z,43.99
2023-02-20T04:17:51.638Z,43.99
2023-02-20T04:18:51.729Z,43.99
2023-02-20T04:19:52.808Z,43.99
2023-02-20T04:20:51.969Z,43.99
2023-02-20T04:21:52.905Z,43.96
2023-02-20T04:22:53.041Z,43.88
2023-02-20T04:23:52.408Z,43.88
2023-02-20T04:24:52.556Z,43.87
2023-02-20T04:25:52.498Z,43.76
2023-02-20T04:26:52.738Z,43.76
2023-02-20T04:27:52.942Z,43.76
2023-02-20T04:28:52.860Z,43.76
2023-02-20T04:29:53.262Z,43.76
2023-02-20T04:30:53.360Z,43.76
2023-02-20T04:31:54.182Z,43.76
2023-02-20T04:32:54.300Z,43.76
2023-02-20T04:33:54.004Z,43.76
2023-02-20T04:34:53.697Z,43.66
2023-02-20T04:35:54.340Z,43.66
2023-02-20T04:36:53.927Z,43.76
2023-02-20T04:37:55.391Z,43.76
2023-02-20T04:38:55.255Z,43.76
2023-02-20T04:39:54.859Z,43.66
2023-02-20T04:40:54.645Z,43.66
2023-02-20T04:41:55.615Z,43.66
2023-02-20T04:42:54.967Z,43.76
2023-02-20T04:43:55.509Z,43.66
2023-02-20T04:44:55.510Z,43.66
2023-02-20T04:45:56.525Z,43.66
2023-02-20T04:46:55.657Z,43.66
2023-02-20T04:47:55.848Z,43.66
2023-02-20T04:48:55.724Z,43.66
2023-02-20T04:49:56.716Z,43.66
2023-02-20T04:50:56.830Z,43.66
2023-02-20T04:51:56.952Z,43.56
2023-02-20T04:52:56.473Z,43.66
2023-02-20T04:53:56.723Z,43.66
2023-02-20T04:54:57.337Z,43.66
2023-02-20T04:55:56.781Z,43.66
2023-02-20T04:56:56.606Z,43.66
2023-02-20T04:57:57.862Z,43.66
2023-02-20T04:58:57.928Z,43.56
2023-02-20T04:59:57.286Z,43.56
2023-02-20T05:00:57.441Z,43.66
2023-02-20T05:01:59.003Z,43.66
2023-02-20T05:02:58.367Z,43.66
2023-02-20T05:03:57.779Z,43.66
2023-02-20T05:04:58.264Z,43.56
2023-02-20T05:05:59.321Z,43.66
2023-02-20T05:06:59.501Z,43.66
2023-02-20T05:07:58.960Z,43.66
2023-02-20T05:08:58.179Z,43.66
2023-02-20T05:09:58.347Z,43.56
2023-02-20T05:10:58.843Z,43.66
2023-02-20T05:11:58.842Z,43.66
2023-02-20T05:13:00.233Z,43.66
2023-02-20T05:13:59.164Z,43.66
2023-02-20T05:14:59.318Z,43.66
2023-02-20T05:15:59.630Z,43.56
2023-02-20T05:16:59.511Z,43.66
2023-02-20T05:17:59.702Z,43.56
2023-02-20T05:18:59.530Z,43.66
2023-02-20T05:19:59.894Z,43.66
2023-02-20T05:23:16.260Z,43.66
2023-02-20T05:24:18.039Z,43.66
2023-02-20T05:25:16.552Z,43.66
2023-02-20T05:26:16.760Z,43.66
2023-02-20T05:27:17.771Z,43.66
2023-02-20T05:28:17.814Z,43.66
2023-02-20T05:29:17.390Z,43.66
2023-02-20T05:30:18.066Z,43.66
2023-02-20T05:31:18.109Z,43.56
2023-02-20T05:32:18.330Z,43.56
2023-02-20T05:33:17.548Z,43.56
2023-02-20T05:34:17.725Z,43.56
2023-02-20T05:35:18.060Z,43.56
2023-02-20T05:36:18.887Z,43.56
2023-02-20T05:37:18.160Z,43.56
2023-02-20T05:38:19.075Z,43.56
2023-02-20T05:39:18.364Z,43.56
2023-02-20T05:40:19.082Z,43.66
2023-02-20T05:41:19.031Z,43.66
2023-02-20T05:42:18.827Z,43.66
2023-02-20T05:43:18.902Z,43.56
2023-02-20T05:44:19.904Z,43.56
2023-02-20T05:45:19.468Z,43.56
2023-02-20T05:46:19.504Z,43.56
2023-02-20T05:47:19.443Z,43.56
2023-02-20T05:48:20.486Z,43.56
2023-02-20T05:49:20.064Z,43.56
2023-02-20T05:50:19.881Z,43.56
2023-02-20T05:51:20.912Z,43.56
2023-02-20T05:52:21.055Z,43.56
2023-02-20T05:53:21.240Z,43.56
2023-02-20T05:54:22.390Z,43.56
2023-02-20T05:55:20.644Z,43.46
2023-02-20T05:56:22.414Z,43.46
2023-02-20T05:57:21.798Z,43.46
2023-02-20T05:58:21.891Z,43.46
2023-02-20T05:59:22.053Z,43.46
2023-02-20T06:00:21.425Z,43.46
2023-02-20T06:01:22.597Z,43.46
2023-02-20T06:02:22.503Z,43.46
2023-02-20T06:03:21.925Z,43.46
2023-02-20T06:04:22.073Z,43.46
2023-02-20T06:05:22.208Z,43.46
2023-02-20T06:06:22.354Z,43.46
2023-02-20T06:07:22.650Z,43.46
2023-02-20T06:08:22.928Z,43.46
2023-02-20T06:09:22.694Z,43.46
2023-02-20T06:10:22.663Z,43.36
2023-02-20T06:11:22.696Z,43.36
2023-02-20T06:12:24.252Z,43.36
2023-02-20T06:13:23.392Z,43.36
2023-02-20T06:14:23.299Z,43.36
2023-02-20T06:15:23.519Z,43.36
2023-02-20T06:16:25.098Z,43.36
2023-02-20T06:17:24.425Z,43.36
2023-02-20T06:18:23.565Z,43.36
2023-02-20T06:19:23.780Z,43.36
2023-02-20T06:20:24.701Z,43.36
2023-02-20T06:21:24.907Z,43.36
2023-02-20T06:22:24.418Z,43.26
2023-02-20T06:23:25.307Z,43.36
2023-02-20T06:24:25.322Z,43.26
2023-02-20T06:25:24.608Z,43.36
2023-02-20T06:26:24.613Z,43.26
2023-02-20T06:27:24.949Z,43.26
2023-02-20T06:28:25.115Z,43.26
2023-02-20T06:29:25.487Z,43.26
2023-02-20T06:30:25.396Z,43.36
2023-02-20T06:31:26.421Z,43.26
2023-02-20T06:32:25.790Z,43.26
2023-02-20T06:33:26.595Z,43.26
2023-02-20T06:34:26.850Z,43.26
2023-02-20T06:35:26.322Z,43.16
2023-02-20T06:36:26.211Z,43.26
2023-02-20T06:37:26.721Z,43.16
2023-02-20T06:38:26.334Z,43.26
2023-02-20T06:39:26.901Z,43.26
2023-02-20T06:40:27.714Z,43.06
2023-02-20T06:41:27.063Z,43.06
2023-02-20T06:43:42.070Z,43.16
2023-02-20T06:44:43.960Z,43.16
2023-02-20T06:45:42.299Z,43.18
2023-02-20T06:46:42.514Z,43.18
2023-02-20T06:47:42.786Z,43.16
2023-02-20T06:48:43.099Z,43.16
2023-02-20T06:49:42.899Z,43.16
2023-02-20T06:50:43.241Z,43.16
2023-02-20T06:51:44.019Z,43.16
2023-02-20T06:52:43.634Z,43.16
2023-02-20T06:53:43.382Z,43.06
2023-02-20T06:54:43.958Z,43.06
2023-02-20T06:55:43.959Z,42.96
2023-02-20T06:56:44.108Z,42.96
2023-02-20T06:57:44.840Z,43.06
2023-02-20T06:58:44.101Z,43.06
2023-02-20T06:59:44.415Z,42.96
2023-02-20T07:00:44.315Z,43.06
2023-02-20T07:01:45.333Z,43.06
2023-02-20T07:02:45.134Z,43.06
2023-02-20T07:03:44.801Z,43.06
2023-02-20T07:04:45.835Z,43.06
2023-02-20T07:05:45.346Z,43.16
2023-02-20T07:06:45.356Z,43.16
2023-02-20T07:07:45.578Z,43.16
2023-02-20T07:08:45.526Z,43.28
2023-02-20T07:09:45.728Z,43.28
2023-02-20T07:10:45.760Z,43.28
2023-02-20T07:11:46.336Z,43.16
2023-02-20T07:12:46.260Z,43.28
2023-02-20T07:13:46.137Z,43.26
2023-02-20T07:14:46.361Z,43.28
2023-02-20T07:15:46.476Z,43.26
2023-02-20T07:16:46.903Z,43.26
2023-02-20T07:17:47.675Z,43.36
2023-02-20T07:18:46.863Z,43.26
2023-02-20T07:19:47.065Z,43.38
2023-02-20T07:20:47.064Z,43.38
2023-02-20T07:21:47.708Z,43.36
2023-02-20T07:22:48.416Z,43.36
2023-02-20T07:23:47.541Z,43.36
2023-02-20T07:24:47.642Z,43.36
2023-02-20T07:25:47.809Z,43.18
2023-02-20T07:26:47.939Z,43.38
2023-02-20T07:27:48.806Z,43.26
2023-02-20T07:28:48.314Z,43.26
2023-02-20T07:29:49.103Z,43.26
2023-02-20T07:30:48.772Z,43.36
2023-02-20T07:31:49.028Z,43.36
2023-02-20T07:32:48.740Z,43.26
2023-02-20T07:33:48.864Z,43.36
2023-02-20T07:35:03.040Z,43.26
2023-02-20T07:35:50.053Z,43.36
2023-02-20T07:36:49.477Z,43.26
2023-02-20T07:37:49.488Z,43.36
2023-02-20T07:38:49.607Z,43.36
2023-02-20T07:39:49.704Z,43.36
2023-02-20T07:40:50.222Z,43.26
2023-02-20T07:41:50.832Z,43.26
2023-02-20T07:42:50.220Z,43.36
2023-02-20T07:43:51.127Z,43.26
2023-02-20T07:44:50.766Z,43.26
2023-02-20T07:45:51.470Z,43.26
2023-02-20T07:46:50.816Z,43.16
2023-02-20T07:47:51.580Z,43.16
2023-02-20T07:48:54.082Z,43.16
2023-02-20T07:49:51.475Z,43.16
2023-02-20T07:50:51.467Z,43.16
2023-02-20T07:51:51.872Z,43.06
2023-02-20T07:52:51.478Z,43.16
2023-02-20T07:53:51.631Z,43.16
2023-02-20T07:54:51.792Z,43.16
2023-02-20T07:55:52.279Z,43.16
2023-02-20T07:56:52.071Z,43.26
2023-02-20T07:57:52.647Z,43.16
2023-02-20T07:58:52.273Z,43.16
2023-02-20T07:59:52.481Z,43.16
2023-02-20T08:00:52.608Z,43.26
2023-02-20T08:03:07.928Z,43.26
2023-02-20T08:04:44.557Z,43.26
2023-02-20T08:05:08.396Z,43.28
2023-02-20T08:06:08.054Z,43.28
2023-02-20T08:07:08.215Z,43.28
2023-02-20T08:08:08.396Z,43.26
2023-02-20T08:09:08.568Z,43.26
2023-02-20T08:10:08.763Z,43.26
2023-02-20T08:11:10.289Z,43.26
2023-02-20T08:12:08.799Z,43.26
2023-02-20T08:13:09.924Z,43.26
2023-02-20T08:14:09.188Z,43.26
2023-02-20T08:15:09.665Z,43.26
2023-02-20T08:16:09.321Z,43.36
2023-02-20T08:17:09.703Z,43.36
2023-02-20T08:18:18.693Z,43.36
2023-02-20T08:19:10.725Z,43.26
2023-02-20T08:20:09.810Z,43.36
2023-02-20T08:21:10.112Z,43.36
2023-02-20T08:22:10.542Z,43.36
2023-02-20T08:23:10.643Z,43.36
2023-02-20T08:24:12.691Z,43.26
2023-02-20T08:25:10.563Z,43.26
2023-02-20T08:26:11.532Z,43.36
2023-02-20T08:27:11.361Z,43.26
2023-02-20T08:28:11.227Z,43.26
2023-02-20T08:29:12.324Z,43.36
2023-02-20T08:30:11.932Z,43.36
2023-02-20T08:31:26.242Z,43.26
2023-02-20T08:32:14.978Z,43.26
2023-02-20T08:33:12.213Z,43.26
2023-02-20T08:34:13.081Z,43.36
2023-02-20T08:35:13.470Z,43.26
2023-02-20T08:36:12.707Z,43.36
2023-02-20T08:37:12.754Z,43.36
2023-02-20T08:38:12.359Z,43.36
2023-02-20T08:39:12.719Z,43.26
2023-02-20T08:40:12.738Z,43.36
2023-02-20T08:41:12.834Z,43.36
2023-02-20T08:42:13.107Z,43.36
2023-02-20T08:43:14.054Z,43.36
2023-02-20T08:44:13.437Z,43.36
2023-02-20T08:45:14.586Z,43.36
2023-02-20T08:46:14.287Z,43.36
2023-02-20T08:47:14.308Z,43.46
2023-02-20T08:48:14.005Z,43.46
2023-02-20T08:49:34.878Z,43.46
2023-02-20T08:50:14.307Z,43.56
2023-02-20T08:51:14.446Z,43.46
2023-02-20T08:52:15.332Z,43.56
2023-02-20T08:53:14.646Z,43.56
2023-02-20T08:54:14.669Z,43.56
2023-02-20T08:55:15.076Z,43.56
2023-02-20T08:56:15.224Z,43.46
2023-02-20T08:57:15.270Z,43.56
2023-02-20T08:58:15.147Z,43.56
2023-02-20T08:59:15.391Z,43.66
2023-02-20T09:00:15.684Z,43.56
2023-02-20T09:01:15.530Z,43.56
2023-02-20T09:02:15.617Z,43.66
2023-02-20T09:03:15.620Z,43.56
2023-02-20T09:04:16.046Z,43.66
2023-02-20T09:05:16.030Z,43.56
2023-02-20T09:06:16.033Z,43.56
2023-02-20T09:07:16.186Z,43.56
2023-02-20T09:08:16.877Z,43.66
2023-02-20T09:09:16.963Z,43.66
2023-02-20T09:10:16.790Z,43.66
2023-02-20T09:11:16.967Z,43.66
2023-02-20T09:12:17.015Z,43.66
2023-02-20T09:13:17.481Z,43.66
2023-02-20T09:14:17.154Z,43.76
2023-02-20T09:15:17.526Z,43.66
2023-02-20T09:16:17.393Z,43.76
2023-02-20T09:17:17.626Z,43.76
2023-02-20T09:18:22.126Z,43.76
2023-02-20T09:19:18.098Z,43.76
2023-02-20T09:21:34.081Z,43.87
2023-02-20T09:22:34.403Z,43.87
2023-02-20T09:23:35.229Z,43.87
2023-02-20T09:24:34.607Z,43.87
2023-02-20T09:25:34.567Z,43.87
2023-02-20T09:26:34.756Z,43.87
2023-02-20T09:27:35.037Z,43.96
2023-02-20T09:28:35.262Z,43.96
2023-02-20T09:29:36.157Z,44.07
2023-02-20T09:30:36.166Z,44.07
2023-02-20T09:31:35.414Z,44.07
2023-02-20T09:32:38.132Z,44.07
2023-02-20T09:33:35.864Z,44.17
2023-02-20T09:34:36.954Z,44.17
2023-02-20T09:35:35.957Z,44.17
2023-02-20T09:36:36.499Z,44.17
2023-02-20T09:37:36.315Z,44.27
2023-02-20T09:38:37.276Z,44.27
2023-02-20T09:39:36.699Z,44.37
2023-02-20T09:40:36.604Z,44.27
2023-02-20T09:41:37.083Z,44.37
2023-02-20T09:42:37.405Z,44.37
2023-02-20T09:43:37.249Z,44.37
2023-02-20T09:44:37.621Z,44.37
2023-02-20T09:45:37.733Z,44.37
2023-02-20T09:46:38.520Z,44.37
2023-02-20T09:47:37.742Z,44.37
2023-02-20T09:48:37.698Z,44.37
2023-02-20T09:49:38.037Z,44.47
2023-02-20T09:50:37.934Z,44.47
2023-02-20T09:51:38.264Z,44.47
2023-02-20T09:52:38.331Z,44.47
2023-02-20T09:53:38.406Z,44.47
2023-02-20T09:54:38.732Z,44.47
2023-02-20T09:55:38.660Z,44.47
2023-02-20T09:56:38.869Z,44.47
2023-02-20T09:57:38.880Z,44.57
2023-02-20T09:58:39.147Z,44.57
2023-02-20T09:59:39.237Z,44.57
2023-02-20T10:00:39.475Z,44.57
2023-02-20T10:01:39.416Z,44.57
2023-02-20T10:13:06.753Z,45.09
2023-02-20T10:14:06.770Z,45.09
2023-02-20T10:15:06.765Z,45.19
2023-02-20T10:16:06.990Z,45.19
2023-02-20T10:17:07.098Z,45.19
2023-02-20T10:18:07.196Z,45.19
2023-02-20T10:19:08.124Z,45.19
2023-02-20T10:20:07.541Z,45.17
2023-02-20T10:21:08.057Z,45.17
2023-02-20T10:22:07.664Z,45.07
2023-02-20T10:23:07.845Z,45.07
2023-02-20T10:24:08.677Z,45.07
2023-02-20T10:25:09.030Z,44.97
2023-02-20T10:26:08.202Z,44.97
2023-02-20T10:27:08.768Z,44.97
2023-02-20T10:28:08.564Z,44.87
2023-02-20T10:29:09.087Z,44.87
2023-02-20T10:30:08.972Z,44.97
2023-02-20T10:31:08.962Z,44.87
2023-02-20T10:32:09.524Z,44.87
2023-02-20T10:33:09.447Z,44.87
2023-02-20T10:34:09.476Z,44.87
2023-02-20T10:35:10.551Z,44.87
2023-02-20T10:36:09.801Z,44.85
2023-02-20T10:37:10.124Z,44.87
2023-02-20T10:38:09.945Z,44.97
2023-02-20T10:39:10.122Z,44.87
2023-02-20T10:40:10.128Z,44.85
2023-02-20T10:41:11.887Z,44.85
2023-02-20T10:42:11.240Z,44.95
2023-02-20T10:43:10.543Z,44.85
2023-02-20T10:44:10.771Z,44.85
2023-02-20T10:45:11.162Z,44.85
2023-02-20T10:46:13.029Z,44.95
2023-02-20T10:47:11.210Z,44.95
2023-02-20T10:48:11.512Z,44.95
2023-02-20T10:49:11.501Z,44.95
2023-02-20T10:50:12.223Z,44.95
2023-02-20T10:51:11.726Z,44.95
2023-02-20T10:52:25.763Z,45.05
2023-02-20T10:53:12.999Z,44.95
2023-02-20T10:54:12.072Z,44.95
2023-02-20T10:55:12.575Z,44.95
2023-02-20T10:56:12.804Z,44.95
2023-02-20T10:57:12.722Z,44.95
2023-02-20T10:58:12.934Z,44.95
2023-02-20T10:59:12.762Z,44.95
2023-02-20T11:00:12.789Z,44.95
2023-02-20T11:01:13.099Z,44.95
2023-02-20T11:02:13.114Z,44.95
2023-02-20T11:03:13.556Z,44.95
2023-02-20T11:04:13.642Z,45.05
2023-02-20T11:05:14.493Z,44.95
2023-02-20T11:06:14.484Z,45.05
2023-02-20T11:07:14.091Z,45.05
2023-02-20T11:08:13.986Z,45.05
2023-02-20T11:09:14.338Z,45.05
2023-02-20T11:10:14.286Z,45.05
2023-02-20T11:11:14.950Z,45.05
2023-02-20T11:12:14.829Z,45.15
2023-02-20T11:13:14.787Z,45.15
2023-02-20T11:14:15.136Z,45.15
2023-02-20T11:15:15.864Z,45.15
2023-02-20T11:16:15.767Z,45.15
2023-02-20T11:17:15.999Z,45.15
2023-02-20T11:18:16.248Z,45.25
2023-02-20T11:19:16.810Z,45.15
2023-02-20T11:20:15.600Z,45.15
2023-02-20T11:21:15.902Z,45.15
2023-02-20T11:22:15.952Z,45.25
2023-02-20T11:23:16.118Z,45.15
2023-02-20T11:24:16.325Z,45.25
2023-02-20T11:25:16.433Z,45.25
2023-02-20T11:26:16.545Z,45.15
2023-02-20T11:27:16.881Z,45.25
2023-02-20T11:28:16.764Z,45.15
2023-02-20T11:29:17.966Z,45.25
2023-02-20T11:30:17.477Z,45.25
2023-02-20T11:31:18.130Z,45.25
2023-02-20T11:32:17.403Z,45.35
2023-02-20T11:33:17.436Z,45.25
2023-02-20T11:34:38.690Z,45.25
2023-02-20T11:35:17.762Z,45.25
2023-02-20T11:36:20.960Z,45.25
2023-02-20T11:37:18.079Z,45.35
2023-02-20T11:38:18.190Z,45.25
2023-02-20T11:39:18.653Z,45.25
2023-02-20T11:40:18.785Z,45.45
2023-02-20T11:41:18.823Z,45.45
2023-02-20T11:43:34.270Z,45.55
2023-02-20T11:44:34.857Z,45.55
2023-02-20T11:45:34.158Z,45.55
2023-02-20T11:46:34.089Z,45.55
2023-02-20T11:47:35.146Z,45.65
2023-02-20T11:48:34.536Z,45.65
2023-02-20T11:49:35.149Z,45.65
2023-02-20T11:50:34.569Z,45.65
2023-02-20T11:51:34.876Z,45.55
2023-02-20T11:52:34.884Z,45.65
2023-02-20T11:53:35.188Z,45.65
2023-02-20T11:54:35.241Z,45.65
2023-02-20T11:55:36.267Z,45.65
2023-02-20T11:56:35.796Z,45.75
2023-02-20T11:57:35.711Z,45.65
2023-02-20T11:58:35.821Z,45.65
2023-02-20T11:59:36.156Z,45.75
2023-02-20T12:00:36.529Z,45.75
2023-02-20T12:01:36.530Z,45.86
2023-02-20T12:02:36.385Z,45.86
2023-02-20T12:03:36.675Z,45.86
2023-02-20T12:04:36.956Z,45.95
2023-02-20T12:05:36.825Z,45.95
2023-02-20T12:06:37.294Z,45.95
2023-02-20T12:07:37.393Z,45.86
2023-02-20T12:08:37.290Z,45.95
2023-02-20T12:09:37.444Z,45.95
2023-02-20T12:10:38.333Z,45.95
2023-02-20T12:11:37.755Z,46.06
2023-02-20T12:12:37.674Z,46.06
2023-02-20T12:13:38.214Z,46.06
2023-02-20T12:14:38.885Z,45.95
2023-02-20T12:15:38.189Z,46.15
2023-02-20T12:16:38.449Z,46.15
2023-02-20T12:17:38.299Z,46.15
2023-02-20T12:18:38.674Z,46.15
2023-02-20T12:19:38.672Z,46.06
2023-02-20T12:20:38.979Z,46.06
2023-02-20T12:21:38.841Z,46.06
2023-02-20T12:22:38.996Z,46.15
2023-02-20T12:23:39.170Z,46.15
2023-02-20T12:24:39.481Z,46.15
2023-02-20T12:25:39.274Z,46.36
2023-02-20T12:26:39.546Z,46.34
2023-02-20T12:27:39.662Z,46.36
2023-02-20T12:28:39.695Z,46.36
2023-02-20T12:29:40.129Z,46.36
2023-02-20T12:30:40.220Z,46.36
2023-02-20T12:31:40.222Z,46.46
2023-02-20T12:32:40.324Z,46.46
2023-02-20T12:33:40.437Z,46.36
2023-02-20T12:34:41.424Z,46.46
2023-02-20T12:35:41.053Z,46.56
2023-02-20T12:36:40.766Z,46.56
2023-02-20T12:37:41.103Z,46.56
2023-02-20T12:38:41.286Z,46.56
2023-02-20T12:39:41.273Z,46.56
2023-02-20T12:40:41.490Z,46.56
2023-02-20T12:41:41.504Z,46.56
2023-02-20T12:42:41.913Z,46.64
2023-02-20T12:43:41.861Z,46.54
2023-02-20T12:44:42.755Z,46.56
2023-02-20T12:45:42.042Z,46.54
2023-02-20T12:46:42.126Z,46.54
2023-02-20T12:47:42.266Z,46.54
2023-02-20T12:48:42.493Z,46.54
2023-02-20T12:49:42.470Z,46.64
2023-02-20T12:50:43.485Z,46.54
2023-02-20T12:51:42.693Z,46.54
2023-02-20T12:52:43.202Z,46.54
2023-02-20T12:53:43.922Z,46.54
2023-02-20T12:54:43.146Z,46.64
2023-02-20T12:55:44.165Z,46.64
2023-02-20T12:56:44.052Z,46.64
2023-02-20T12:57:44.674Z,46.64
2023-02-20T12:58:45.352Z,46.64
2023-02-20T12:59:44.700Z,46.64
2023-02-20T13:00:44.885Z,46.64
2023-02-20T13:04:04.083Z,46.73
2023-02-20T13:05:02.273Z,46.73
2023-02-20T13:06:01.390Z,46.73
2023-02-20T13:07:02.076Z,46.73
2023-02-20T13:08:00.738Z,46.73
2023-02-20T13:09:00.834Z,46.94
2023-02-20T13:10:01.150Z,46.84
2023-02-20T13:11:02.614Z,46.84
2023-02-20T13:12:01.373Z,46.73
2023-02-20T13:13:02.723Z,46.73
2023-02-20T13:14:02.359Z,46.94
2023-02-20T13:15:01.591Z,46.84
2023-02-20T13:16:01.725Z,46.94
2023-02-20T13:17:01.918Z,46.84
2023-02-20T13:18:02.931Z,46.84
2023-02-20T13:19:02.465Z,46.84
2023-02-20T13:20:03.093Z,46.84
2023-02-20T13:21:02.752Z,46.84
2023-02-20T13:22:02.765Z,46.84
2023-02-20T13:23:02.583Z,46.84
2023-02-20T13:24:02.790Z,46.73
2023-02-20T13:25:03.707Z,46.84
2023-02-20T13:26:03.510Z,46.84
2023-02-20T13:27:03.123Z,46.73
2023-02-20T13:28:03.201Z,46.73
2023-02-20T13:29:04.302Z,46.94
2023-02-20T13:30:03.675Z,46.94
2023-02-20T13:31:04.045Z,47.04
2023-02-20T13:32:03.857Z,47.04
2023-02-20T13:33:03.951Z,46.94
2023-02-20T13:34:04.202Z,46.94
2023-02-20T13:35:04.469Z,46.94
2023-02-20T13:36:05.254Z,47.04
2023-02-20T13:37:04.793Z,46.94
2023-02-20T13:38:05.510Z,46.94
2023-02-20T13:39:05.121Z,46.94
2023-02-20T13:40:05.016Z,46.94
2023-02-20T13:41:05.922Z,46.94
2023-02-20T13:42:05.452Z,47.04
2023-02-20T13:43:05.250Z,47.04
2023-02-20T13:44:06.661Z,46.94
2023-02-20T13:45:06.483Z,46.94
2023-02-20T13:46:05.785Z,47.04
2023-02-20T13:47:05.885Z,47.04
2023-02-20T13:48:07.168Z,47.04
2023-02-20T13:49:06.711Z,47.04
2023-02-20T13:50:06.437Z,47.04
2023-02-20T13:51:06.425Z,47.14
2023-02-20T13:52:07.880Z,47.16
2023-02-20T13:53:06.949Z,47.04
2023-02-20T13:54:07.809Z,47.04
2023-02-20T13:55:07.467Z,47.14
2023-02-20T13:56:07.558Z,47.14
2023-02-20T13:57:09.061Z,47.14
2023-02-20T13:58:07.677Z,47.16
2023-02-20T13:59:07.899Z,47.06
2023-02-20T14:00:08.118Z,47.04
2023-02-20T14:01:08.251Z,47.04
2023-02-20T14:02:07.871Z,47.04
2023-02-20T14:03:08.166Z,47.14
2023-02-20T14:04:09.643Z,47.14
2023-02-20T14:05:08.587Z,47.14
2023-02-20T14:06:08.466Z,47.14
2023-02-20T14:07:09.684Z,47.36
2023-02-20T14:08:09.848Z,47.26
2023-02-20T14:09:09.547Z,47.36
2023-02-20T14:10:11.599Z,47.26
2023-02-20T14:11:09.520Z,47.36
2023-02-20T14:12:09.355Z,47.36
2023-02-20T14:13:10.745Z,47.36
2023-02-20T14:14:10.619Z,47.36
2023-02-20T14:15:10.181Z,47.36
2023-02-20T14:16:10.217Z,47.26
2023-02-20T14:17:10.380Z,47.36
2023-02-20T14:18:11.094Z,47.26
2023-02-20T14:19:10.412Z,47.36
2023-02-20T14:20:14.648Z,47.34
2023-02-20T14:21:10.948Z,47.34
2023-02-20T14:22:10.614Z,47.34
2023-02-20T14:23:10.853Z,47.34
2023-02-20T14:24:11.034Z,47.34
2023-02-20T14:27:28.374Z,47.46
2023-02-20T14:28:28.469Z,47.46
2023-02-20T14:29:27.693Z,47.46
2023-02-20T14:30:29.038Z,47.46
2023-02-20T14:31:28.179Z,47.56
2023-02-20T14:32:28.343Z,47.56
2023-02-20T14:33:29.001Z,47.56
2023-02-20T14:34:29.652Z,47.66
2023-02-20T14:35:30.343Z,47.56
2023-02-20T14:36:28.756Z,47.66
2023-02-20T14:37:28.542Z,47.66
2023-02-20T14:38:29.666Z,47.56
2023-02-20T14:39:30.016Z,47.66
2023-02-20T14:40:29.892Z,47.66
2023-02-20T14:41:29.973Z,47.66
2023-02-20T14:42:29.718Z,47.66
2023-02-20T14:43:29.538Z,47.56
2023-02-20T14:44:30.436Z,47.66
2023-02-20T14:45:31.051Z,47.77
2023-02-20T14:46:30.071Z,47.77
2023-02-20T14:47:30.343Z,47.77
2023-02-20T14:48:30.051Z,47.77
2023-02-20T14:49:30.683Z,47.77
2023-02-20T14:50:31.292Z,47.77
2023-02-20T14:51:31.414Z,47.66
2023-02-20T14:52:31.541Z,47.77
2023-02-20T14:53:31.373Z,47.77
2023-02-20T14:54:31.850Z,47.66
2023-02-20T14:55:31.261Z,47.66
2023-02-20T14:56:34.170Z,47.77
2023-02-20T14:57:31.634Z,47.77
2023-02-20T14:58:31.838Z,47.77
2023-02-20T14:59:32.095Z,47.77
2023-02-20T15:00:32.709Z,47.77
2023-02-20T15:01:36.149Z,47.77
2023-02-20T15:02:34.507Z,47.77
2023-02-20T15:03:32.256Z,47.77
2023-02-20T15:04:33.213Z,47.77
2023-02-20T15:05:32.429Z,47.77
2023-02-20T15:06:32.627Z,47.77
2023-02-20T15:07:33.047Z,47.77
2023-02-20T15:08:33.152Z,47.86
2023-02-20T15:09:33.078Z,47.86
2023-02-20T15:10:33.069Z,47.86
2023-02-20T15:11:33.358Z,47.77
2023-02-20T15:12:33.277Z,47.86
2023-02-20T15:13:34.226Z,47.86
2023-02-20T15:14:33.613Z,47.86
2023-02-20T15:15:34.705Z,47.86
2023-02-20T15:16:34.015Z,47.86
2023-02-20T15:17:34.458Z,47.97
2023-02-20T15:18:34.226Z,47.97
2023-02-20T15:19:34.323Z,47.97
2023-02-20T15:20:34.564Z,47.97
2023-02-20T15:21:34.878Z,47.97
2023-02-20T15:22:35.596Z,47.97
2023-02-20T15:23:34.828Z,47.97
2023-02-20T15:24:34.888Z,47.97
2023-02-20T15:25:35.998Z,48.07
2023-02-20T15:26:35.625Z,48.07
2023-02-20T15:27:36.319Z,48.07
2023-02-20T15:28:36.414Z,48.07
2023-02-20T15:29:35.789Z,48.07
2023-02-20T15:30:35.993Z,48.07
2023-02-20T15:31:35.993Z,48.07
2023-02-20T15:32:36.295Z,48.07
2023-02-20T15:33:40.134Z,47.97
2023-02-20T15:34:36.833Z,47.97
2023-02-20T15:35:36.926Z,48.07
2023-02-20T15:36:37.647Z,48.07
2023-02-20T15:37:43.341Z,47.97
2023-02-20T15:38:38.097Z,47.97
2023-02-20T15:39:38.023Z,48.07
2023-02-20T15:40:37.578Z,48.07
2023-02-20T15:41:37.356Z,48.07
2023-02-20T15:42:37.874Z,48.07
2023-02-20T15:43:51.359Z,48.07
2023-02-20T15:44:39.250Z,48.07
2023-02-20T15:45:39.002Z,48.17
2023-02-20T15:46:38.289Z,48.17
2023-02-20T15:47:39.647Z,48.17
2023-02-20T15:48:39.316Z,48.17
2023-02-20T15:52:01.761Z,48.17
2023-02-20T15:52:55.863Z,48.27
2023-02-20T15:53:55.153Z,48.17
2023-02-20T15:54:56.381Z,48.27
2023-02-20T15:55:56.199Z,48.27
2023-02-20T15:56:55.367Z,48.17
2023-02-20T15:57:55.693Z,48.27
2023-02-20T15:58:56.924Z,48.27
2023-02-20T15:59:57.050Z,48.27
2023-02-20T16:00:56.110Z,48.27
2023-02-20T16:12:15.555Z,48.90
2023-02-20T16:13:18.782Z,48.99
2023-02-20T16:14:15.628Z,48.99
2023-02-20T16:15:16.852Z,49.10
2023-02-20T16:16:23.888Z,48.99
2023-02-20T16:17:17.738Z,48.99
2023-02-20T16:18:16.399Z,48.99
2023-02-20T16:19:16.019Z,48.99
2023-02-20T16:20:17.369Z,48.87
2023-02-20T16:21:16.346Z,48.87
2023-02-20T16:22:17.700Z,48.87
2023-02-20T16:23:16.579Z,48.87
2023-02-20T16:24:16.746Z,48.87
2023-02-20T16:25:17.788Z,48.87
2023-02-20T16:26:17.791Z,48.77
2023-02-20T16:27:23.689Z,48.77
2023-02-20T16:28:19.253Z,48.87
2023-02-20T16:29:18.214Z,48.77
2023-02-20T16:30:30.866Z,48.77
2023-02-20T16:31:18.828Z,48.77
2023-02-20T16:32:18.657Z,48.87
2023-02-20T16:33:19.081Z,48.77
2023-02-20T16:34:21.976Z,48.67
2023-02-20T16:35:18.993Z,48.67
2023-02-20T16:36:24.668Z,48.77
2023-02-20T16:37:19.296Z,48.77
2023-02-20T16:38:18.683Z,48.67
2023-02-20T16:39:26.323Z,48.77
2023-02-20T16:40:20.024Z,48.67
2023-02-20T16:41:19.358Z,48.67
2023-02-20T16:42:19.009Z,48.77
2023-02-20T16:43:19.224Z,48.67
2023-02-20T16:44:19.258Z,48.77
2023-02-20T16:45:19.775Z,48.67
2023-02-20T16:46:32.839Z,48.87
2023-02-20T16:47:20.831Z,48.87
2023-02-20T16:48:21.090Z,48.77
2023-02-20T16:49:20.830Z,48.67
2023-02-20T16:50:21.433Z,48.87
2023-02-20T16:51:21.324Z,48.87
2023-02-20T16:52:21.293Z,48.77
2023-02-20T16:53:21.355Z,48.87
2023-02-20T16:54:20.927Z,48.87
2023-02-20T16:55:21.766Z,48.87
2023-02-20T16:56:20.963Z,48.87
2023-02-20T16:57:21.363Z,48.77
2023-02-20T16:58:21.373Z,48.77
2023-02-20T16:59:21.392Z,48.87
2023-02-20T17:00:22.957Z,48.87
2023-02-20T17:01:22.571Z,48.77
2023-02-20T17:02:22.854Z,48.77
2023-02-20T17:03:22.732Z,48.77
2023-02-20T17:04:23.041Z,48.77
2023-02-20T17:05:23.797Z,48.77
2023-02-20T17:06:22.255Z,48.67
2023-02-20T17:07:22.338Z,48.77
2023-02-20T17:08:23.783Z,48.77
2023-02-20T17:09:26.359Z,48.87
2023-02-20T17:10:25.311Z,48.77
2023-02-20T17:11:23.820Z,48.77
2023-02-20T17:12:23.122Z,48.77
2023-02-20T17:13:24.370Z,48.77
2023-02-20T17:14:24.444Z,48.87
2023-02-20T17:15:24.460Z,48.87
2023-02-20T17:16:31.377Z,48.87
2023-02-20T17:17:25.936Z,48.97
2023-02-20T17:18:23.866Z,48.87
2023-02-20T17:19:25.201Z,48.97
2023-02-20T17:20:24.268Z,48.87
2023-02-20T17:21:24.476Z,48.97
2023-02-20T17:22:24.615Z,48.87
2023-02-20T17:23:24.822Z,48.97
2023-02-20T17:24:25.029Z,48.87
2023-02-20T17:25:25.827Z,48.87
2023-02-20T17:26:25.256Z,48.87
2023-02-20T17:27:26.911Z,48.87